sensor_id;sensor_type;location;lat;lon;timestamp;P1;durP1;ratioP1;P2;durP2;ratioP2
54428;SDS011;40337;52.978;6.310;2022-11-09T00:01:26;7.93;;;2.40;;
54428;SDS011;40337;52.978;6.310;2022-11-09T00:03:53;5.18;;;2.75;;
54428;SDS011;40337;52.978;6.310;2022-11-09T00:06:20;6.10;;;2.45;;
54428;SDS011;40337;52.978;6.310;2022-11-09T00:08:46;5.13;;;2.42;;
54428;SDS011;40337;52.978;6.310;2022-11-09T00:11:12;4.47;;;2.78;;
54428;SDS011;40337;52.978;6.310;2022-11-09T00:13:38;5.28;;;2.65;;
54428;SDS011;40337;52.978;6.310;2022-11-09T00:16:05;4.63;;;2.45;;
54428;SDS011;40337;52.978;6.310;2022-11-09T00:18:33;5.60;;;2.40;;
54428;SDS011;40337;52.978;6.310;2022-11-09T00:21:08;5.38;;;2.53;;
54428;SDS011;40337;52.978;6.310;2022-11-09T00:23:36;5.60;;;2.47;;
54428;SDS011;40337;52.978;6.310;2022-11-09T00:26:02;5.65;;;2.97;;
54428;SDS011;40337;52.978;6.310;2022-11-09T00:28:28;6.20;;;2.75;;
54428;SDS011;40337;52.978;6.310;2022-11-09T00:31:04;5.03;;;2.83;;
54428;SDS011;40337;52.978;6.310;2022-11-09T00:33:31;6.95;;;3.15;;
54428;SDS011;40337;52.978;6.310;2022-11-09T00:35:57;7.38;;;3.00;;
54428;SDS011;40337;52.978;6.310;2022-11-09T00:38:23;5.10;;;2.95;;
54428;SDS011;40337;52.978;6.310;2022-11-09T00:40:48;5.47;;;2.90;;
54428;SDS011;40337;52.978;6.310;2022-11-09T00:43:14;4.95;;;2.97;;
54428;SDS011;40337;52.978;6.310;2022-11-09T00:45:40;6.13;;;3.25;;
54428;SDS011;40337;52.978;6.310;2022-11-09T00:48:06;7.10;;;3.72;;
54428;SDS011;40337;52.978;6.310;2022-11-09T00:50:32;6.60;;;3.67;;
54428;SDS011;40337;52.978;6.310;2022-11-09T00:52:58;6.57;;;3.17;;
54428;SDS011;40337;52.978;6.310;2022-11-09T00:55:24;6.38;;;3.42;;
54428;SDS011;40337;52.978;6.310;2022-11-09T00:57:50;8.10;;;3.70;;
54428;SDS011;40337;52.978;6.310;2022-11-09T01:00:20;7.72;;;3.03;;
54428;SDS011;40337;52.978;6.310;2022-11-09T01:02:50;7.38;;;3.33;;
54428;SDS011;40337;52.978;6.310;2022-11-09T01:05:16;8.02;;;3.10;;
54428;SDS011;40337;52.978;6.310;2022-11-09T01:07:42;6.82;;;2.83;;
54428;SDS011;40337;52.978;6.310;2022-11-09T01:10:08;7.68;;;3.00;;
54428;SDS011;40337;52.978;6.310;2022-11-09T01:12:34;8.75;;;3.45;;
54428;SDS011;40337;52.978;6.310;2022-11-09T01:14:59;8.02;;;3.22;;
54428;SDS011;40337;52.978;6.310;2022-11-09T01:17:25;7.97;;;3.22;;
54428;SDS011;40337;52.978;6.310;2022-11-09T01:19:50;6.22;;;3.10;;
54428;SDS011;40337;52.978;6.310;2022-11-09T01:22:16;9.73;;;3.28;;
54428;SDS011;40337;52.978;6.310;2022-11-09T01:24:43;7.20;;;2.65;;
54428;SDS011;40337;52.978;6.310;2022-11-09T01:27:09;8.02;;;2.95;;
54428;SDS011;40337;52.978;6.310;2022-11-09T01:29:35;6.38;;;3.00;;
54428;SDS011;40337;52.978;6.310;2022-11-09T01:32:00;7.75;;;3.00;;
54428;SDS011;40337;52.978;6.310;2022-11-09T01:34:26;9.18;;;3.08;;
54428;SDS011;40337;52.978;6.310;2022-11-09T01:36:52;7.30;;;2.85;;
54428;SDS011;40337;52.978;6.310;2022-11-09T01:39:18;6.50;;;2.70;;
54428;SDS011;40337;52.978;6.310;2022-11-09T01:41:44;8.30;;;2.88;;
54428;SDS011;40337;52.978;6.310;2022-11-09T01:44:14;9.55;;;2.78;;
54428;SDS011;40337;52.978;6.310;2022-11-09T01:55:09;6.82;;;2.80;;
54428;SDS011;40337;52.978;6.310;2022-11-09T01:57:40;8.88;;;3.03;;
54428;SDS011;40337;52.978;6.310;2022-11-09T02:00:19;9.98;;;3.15;;
54428;SDS011;40337;52.978;6.310;2022-11-09T02:02:45;8.65;;;2.65;;
54428;SDS011;40337;52.978;6.310;2022-11-09T02:05:21;9.18;;;2.80;;
54428;SDS011;40337;52.978;6.310;2022-11-09T02:07:50;8.48;;;2.78;;
54428;SDS011;40337;52.978;6.310;2022-11-09T02:10:21;10.88;;;3.00;;
54428;SDS011;40337;52.978;6.310;2022-11-09T02:12:51;7.13;;;2.75;;
54428;SDS011;40337;52.978;6.310;2022-11-09T02:15:18;9.93;;;3.00;;
54428;SDS011;40337;52.978;6.310;2022-11-09T02:17:46;6.32;;;2.53;;
54428;SDS011;40337;52.978;6.310;2022-11-09T02:20:16;6.93;;;3.10;;
54428;SDS011;40337;52.978;6.310;2022-11-09T02:22:42;9.25;;;2.80;;
54428;SDS011;40337;52.978;6.310;2022-11-09T02:25:08;8.77;;;2.63;;
54428;SDS011;40337;52.978;6.310;2022-11-09T02:27:35;8.15;;;2.72;;
54428;SDS011;40337;52.978;6.310;2022-11-09T02:30:01;9.38;;;2.67;;
54428;SDS011;40337;52.978;6.310;2022-11-09T02:32:28;6.60;;;2.45;;
54428;SDS011;40337;52.978;6.310;2022-11-09T02:34:54;9.02;;;3.03;;
54428;SDS011;40337;52.978;6.310;2022-11-09T02:37:31;10.13;;;2.60;;
54428;SDS011;40337;52.978;6.310;2022-11-09T02:40:02;6.30;;;2.50;;
54428;SDS011;40337;52.978;6.310;2022-11-09T02:42:31;7.40;;;2.60;;
54428;SDS011;40337;52.978;6.310;2022-11-09T02:44:57;8.13;;;2.90;;
54428;SDS011;40337;52.978;6.310;2022-11-09T02:47:24;10.38;;;3.13;;
54428;SDS011;40337;52.978;6.310;2022-11-09T02:49:50;7.82;;;2.72;;
54428;SDS011;40337;52.978;6.310;2022-11-09T02:52:16;8.98;;;2.70;;
54428;SDS011;40337;52.978;6.310;2022-11-09T02:54:42;9.23;;;3.00;;
54428;SDS011;40337;52.978;6.310;2022-11-09T02:57:07;9.00;;;2.90;;
54428;SDS011;40337;52.978;6.310;2022-11-09T02:59:33;7.30;;;2.67;;
54428;SDS011;40337;52.978;6.310;2022-11-09T03:01:58;7.88;;;2.80;;
54428;SDS011;40337;52.978;6.310;2022-11-09T03:04:24;7.38;;;2.75;;
54428;SDS011;40337;52.978;6.310;2022-11-09T03:06:50;9.60;;;3.03;;
54428;SDS011;40337;52.978;6.310;2022-11-09T03:09:15;8.20;;;2.60;;
54428;SDS011;40337;52.978;6.310;2022-11-09T03:11:41;8.57;;;2.70;;
54428;SDS011;40337;52.978;6.310;2022-11-09T03:14:07;9.18;;;2.95;;
54428;SDS011;40337;52.978;6.310;2022-11-09T03:16:34;7.88;;;2.60;;
54428;SDS011;40337;52.978;6.310;2022-11-09T03:19:00;8.10;;;2.60;;
54428;SDS011;40337;52.978;6.310;2022-11-09T03:21:27;10.73;;;2.55;;
54428;SDS011;40337;52.978;6.310;2022-11-09T03:23:53;9.50;;;2.50;;
54428;SDS011;40337;52.978;6.310;2022-11-09T03:26:18;7.68;;;2.55;;
54428;SDS011;40337;52.978;6.310;2022-11-09T03:28:45;8.48;;;2.92;;
54428;SDS011;40337;52.978;6.310;2022-11-09T03:31:10;9.73;;;2.83;;
54428;SDS011;40337;52.978;6.310;2022-11-09T03:33:36;9.10;;;2.88;;
54428;SDS011;40337;52.978;6.310;2022-11-09T03:36:01;9.77;;;2.60;;
54428;SDS011;40337;52.978;6.310;2022-11-09T03:38:27;8.77;;;2.72;;
54428;SDS011;40337;52.978;6.310;2022-11-09T03:40:53;8.40;;;2.70;;
54428;SDS011;40337;52.978;6.310;2022-11-09T03:43:19;8.77;;;2.72;;
54428;SDS011;40337;52.978;6.310;2022-11-09T03:45:45;7.55;;;2.92;;
54428;SDS011;40337;52.978;6.310;2022-11-09T03:48:11;10.05;;;2.72;;
54428;SDS011;40337;52.978;6.310;2022-11-09T03:50:37;10.90;;;2.80;;
54428;SDS011;40337;52.978;6.310;2022-11-09T03:53:04;10.23;;;2.50;;
54428;SDS011;40337;52.978;6.310;2022-11-09T03:55:31;7.63;;;2.65;;
54428;SDS011;40337;52.978;6.310;2022-11-09T03:57:57;9.63;;;2.40;;
54428;SDS011;40337;52.978;6.310;2022-11-09T04:00:22;13.23;;;2.80;;
54428;SDS011;40337;52.978;6.310;2022-11-09T04:02:48;9.00;;;2.92;;
54428;SDS011;40337;52.978;6.310;2022-11-09T04:05:14;8.77;;;2.30;;
54428;SDS011;40337;52.978;6.310;2022-11-09T04:07:40;11.73;;;2.53;;
54428;SDS011;40337;52.978;6.310;2022-11-09T04:10:15;10.10;;;2.60;;
54428;SDS011;40337;52.978;6.310;2022-11-09T04:12:41;11.88;;;2.97;;
54428;SDS011;40337;52.978;6.310;2022-11-09T04:15:07;8.60;;;2.35;;
54428;SDS011;40337;52.978;6.310;2022-11-09T04:17:33;10.95;;;2.60;;
54428;SDS011;40337;52.978;6.310;2022-11-09T04:19:58;12.65;;;2.95;;
54428;SDS011;40337;52.978;6.310;2022-11-09T04:22:24;8.77;;;2.33;;
54428;SDS011;40337;52.978;6.310;2022-11-09T04:24:50;10.32;;;2.80;;
54428;SDS011;40337;52.978;6.310;2022-11-09T04:27:15;8.10;;;2.53;;
54428;SDS011;40337;52.978;6.310;2022-11-09T04:29:41;10.32;;;2.75;;
54428;SDS011;40337;52.978;6.310;2022-11-09T04:32:06;10.35;;;2.90;;
54428;SDS011;40337;52.978;6.310;2022-11-09T04:34:32;7.90;;;2.83;;
54428;SDS011;40337;52.978;6.310;2022-11-09T04:36:58;9.98;;;2.50;;
54428;SDS011;40337;52.978;6.310;2022-11-09T04:39:23;8.68;;;2.80;;
54428;SDS011;40337;52.978;6.310;2022-11-09T04:41:49;8.50;;;2.60;;
54428;SDS011;40337;52.978;6.310;2022-11-09T04:44:14;11.02;;;2.85;;
54428;SDS011;40337;52.978;6.310;2022-11-09T04:46:40;8.23;;;2.67;;
54428;SDS011;40337;52.978;6.310;2022-11-09T04:49:06;7.72;;;2.50;;
54428;SDS011;40337;52.978;6.310;2022-11-09T04:51:32;9.50;;;3.00;;
54428;SDS011;40337;52.978;6.310;2022-11-09T04:53:57;6.90;;;2.55;;
54428;SDS011;40337;52.978;6.310;2022-11-09T04:56:23;8.40;;;2.45;;
54428;SDS011;40337;52.978;6.310;2022-11-09T04:58:48;8.18;;;3.13;;
54428;SDS011;40337;52.978;6.310;2022-11-09T05:01:14;7.55;;;2.50;;
54428;SDS011;40337;52.978;6.310;2022-11-09T05:03:40;7.88;;;2.60;;
54428;SDS011;40337;52.978;6.310;2022-11-09T05:06:06;10.13;;;2.80;;
54428;SDS011;40337;52.978;6.310;2022-11-09T05:08:54;7.63;;;2.65;;
54428;SDS011;40337;52.978;6.310;2022-11-09T05:11:20;11.68;;;2.97;;
54428;SDS011;40337;52.978;6.310;2022-11-09T05:13:46;9.50;;;3.05;;
54428;SDS011;40337;52.978;6.310;2022-11-09T05:16:12;7.28;;;2.55;;
54428;SDS011;40337;52.978;6.310;2022-11-09T05:18:38;7.22;;;2.72;;
54428;SDS011;40337;52.978;6.310;2022-11-09T05:21:04;7.03;;;2.85;;
54428;SDS011;40337;52.978;6.310;2022-11-09T05:23:30;7.13;;;2.67;;
54428;SDS011;40337;52.978;6.310;2022-11-09T05:26:14;8.60;;;3.03;;
54428;SDS011;40337;52.978;6.310;2022-11-09T05:28:39;9.57;;;2.80;;
54428;SDS011;40337;52.978;6.310;2022-11-09T05:31:05;8.93;;;3.03;;
54428;SDS011;40337;52.978;6.310;2022-11-09T05:33:30;7.82;;;2.65;;
54428;SDS011;40337;52.978;6.310;2022-11-09T05:35:56;9.13;;;2.90;;
54428;SDS011;40337;52.978;6.310;2022-11-09T05:38:23;6.00;;;2.47;;
54428;SDS011;40337;52.978;6.310;2022-11-09T05:40:49;7.90;;;2.58;;
54428;SDS011;40337;52.978;6.310;2022-11-09T05:43:16;7.07;;;2.67;;
54428;SDS011;40337;52.978;6.310;2022-11-09T05:45:42;8.18;;;2.88;;
54428;SDS011;40337;52.978;6.310;2022-11-09T05:48:08;8.63;;;3.00;;
54428;SDS011;40337;52.978;6.310;2022-11-09T05:50:36;13.50;;;3.38;;
54428;SDS011;40337;52.978;6.310;2022-11-09T05:53:02;8.20;;;2.63;;
54428;SDS011;40337;52.978;6.310;2022-11-09T05:55:27;9.70;;;2.90;;
54428;SDS011;40337;52.978;6.310;2022-11-09T05:57:53;9.02;;;2.53;;
54428;SDS011;40337;52.978;6.310;2022-11-09T06:00:19;6.68;;;2.60;;
54428;SDS011;40337;52.978;6.310;2022-11-09T06:02:45;8.73;;;2.70;;
54428;SDS011;40337;52.978;6.310;2022-11-09T06:05:11;6.90;;;2.63;;
54428;SDS011;40337;52.978;6.310;2022-11-09T06:07:36;8.65;;;2.65;;
54428;SDS011;40337;52.978;6.310;2022-11-09T06:10:02;9.23;;;2.75;;
54428;SDS011;40337;52.978;6.310;2022-11-09T06:12:28;7.78;;;2.58;;
54428;SDS011;40337;52.978;6.310;2022-11-09T06:14:54;6.97;;;2.50;;
54428;SDS011;40337;52.978;6.310;2022-11-09T06:17:19;12.52;;;2.83;;
54428;SDS011;40337;52.978;6.310;2022-11-09T06:19:45;8.70;;;2.50;;
54428;SDS011;40337;52.978;6.310;2022-11-09T06:22:10;7.18;;;2.70;;
54428;SDS011;40337;52.978;6.310;2022-11-09T06:24:36;11.07;;;2.67;;
54428;SDS011;40337;52.978;6.310;2022-11-09T06:27:02;9.65;;;2.85;;
54428;SDS011;40337;52.978;6.310;2022-11-09T06:29:27;9.63;;;2.80;;
54428;SDS011;40337;52.978;6.310;2022-11-09T06:31:53;7.80;;;2.60;;
54428;SDS011;40337;52.978;6.310;2022-11-09T06:34:19;10.02;;;2.65;;
54428;SDS011;40337;52.978;6.310;2022-11-09T06:36:44;8.10;;;2.50;;
54428;SDS011;40337;52.978;6.310;2022-11-09T06:39:10;7.85;;;2.45;;
54428;SDS011;40337;52.978;6.310;2022-11-09T06:41:36;8.57;;;2.50;;
54428;SDS011;40337;52.978;6.310;2022-11-09T06:44:01;9.95;;;3.17;;
54428;SDS011;40337;52.978;6.310;2022-11-09T06:46:27;10.55;;;2.58;;
54428;SDS011;40337;52.978;6.310;2022-11-09T06:48:52;7.53;;;2.40;;
54428;SDS011;40337;52.978;6.310;2022-11-09T06:51:18;9.23;;;2.72;;
54428;SDS011;40337;52.978;6.310;2022-11-09T06:53:43;10.70;;;2.72;;
54428;SDS011;40337;52.978;6.310;2022-11-09T06:56:09;8.05;;;2.50;;
54428;SDS011;40337;52.978;6.310;2022-11-09T06:58:35;7.95;;;2.30;;
54428;SDS011;40337;52.978;6.310;2022-11-09T07:01:11;8.27;;;2.58;;
54428;SDS011;40337;52.978;6.310;2022-11-09T07:03:40;10.52;;;2.80;;
54428;SDS011;40337;52.978;6.310;2022-11-09T07:06:08;10.15;;;2.88;;
54428;SDS011;40337;52.978;6.310;2022-11-09T07:08:35;7.75;;;2.30;;
54428;SDS011;40337;52.978;6.310;2022-11-09T07:11:02;9.75;;;2.92;;
54428;SDS011;40337;52.978;6.310;2022-11-09T07:13:40;9.27;;;2.58;;
54428;SDS011;40337;52.978;6.310;2022-11-09T07:16:05;8.07;;;2.28;;
54428;SDS011;40337;52.978;6.310;2022-11-09T07:18:32;8.15;;;2.67;;
54428;SDS011;40337;52.978;6.310;2022-11-09T07:20:57;6.38;;;2.42;;
54428;SDS011;40337;52.978;6.310;2022-11-09T07:23:23;11.98;;;2.78;;
54428;SDS011;40337;52.978;6.310;2022-11-09T07:25:49;10.27;;;2.50;;
54428;SDS011;40337;52.978;6.310;2022-11-09T07:28:14;9.80;;;2.67;;
54428;SDS011;40337;52.978;6.310;2022-11-09T07:30:40;8.38;;;2.22;;
54428;SDS011;40337;52.978;6.310;2022-11-09T07:33:13;9.63;;;2.85;;
54428;SDS011;40337;52.978;6.310;2022-11-09T07:35:42;9.18;;;2.15;;
54428;SDS011;40337;52.978;6.310;2022-11-09T07:38:07;11.10;;;2.70;;
54428;SDS011;40337;52.978;6.310;2022-11-09T07:40:33;11.88;;;2.92;;
54428;SDS011;40337;52.978;6.310;2022-11-09T07:42:59;9.10;;;2.75;;
54428;SDS011;40337;52.978;6.310;2022-11-09T07:45:26;10.27;;;2.85;;
54428;SDS011;40337;52.978;6.310;2022-11-09T07:47:55;8.70;;;2.53;;
54428;SDS011;40337;52.978;6.310;2022-11-09T07:50:22;7.63;;;2.70;;
54428;SDS011;40337;52.978;6.310;2022-11-09T07:52:47;8.20;;;2.80;;
54428;SDS011;40337;52.978;6.310;2022-11-09T07:55:13;10.80;;;2.85;;
54428;SDS011;40337;52.978;6.310;2022-11-09T07:57:38;9.75;;;3.42;;
54428;SDS011;40337;52.978;6.310;2022-11-09T08:00:04;9.02;;;2.70;;
54428;SDS011;40337;52.978;6.310;2022-11-09T08:02:30;11.23;;;3.08;;
54428;SDS011;40337;52.978;6.310;2022-11-09T08:04:55;11.32;;;3.25;;
54428;SDS011;40337;52.978;6.310;2022-11-09T08:07:21;8.38;;;2.65;;
54428;SDS011;40337;52.978;6.310;2022-11-09T08:09:47;12.30;;;2.95;;
54428;SDS011;40337;52.978;6.310;2022-11-09T08:12:13;8.73;;;2.80;;
54428;SDS011;40337;52.978;6.310;2022-11-09T08:14:38;11.68;;;3.67;;
54428;SDS011;40337;52.978;6.310;2022-11-09T08:17:04;15.60;;;2.70;;
54428;SDS011;40337;52.978;6.310;2022-11-09T08:19:29;9.38;;;2.78;;
54428;SDS011;40337;52.978;6.310;2022-11-09T08:21:55;10.18;;;3.05;;
54428;SDS011;40337;52.978;6.310;2022-11-09T08:24:21;11.30;;;2.85;;
54428;SDS011;40337;52.978;6.310;2022-11-09T08:26:47;10.32;;;2.88;;
54428;SDS011;40337;52.978;6.310;2022-11-09T08:29:13;9.18;;;3.08;;
54428;SDS011;40337;52.978;6.310;2022-11-09T08:31:39;11.50;;;3.40;;
54428;SDS011;40337;52.978;6.310;2022-11-09T08:34:05;8.68;;;2.95;;
54428;SDS011;40337;52.978;6.310;2022-11-09T08:36:34;12.60;;;2.90;;
54428;SDS011;40337;52.978;6.310;2022-11-09T08:39:00;9.63;;;2.83;;
54428;SDS011;40337;52.978;6.310;2022-11-09T08:41:25;11.50;;;3.10;;
54428;SDS011;40337;52.978;6.310;2022-11-09T08:43:52;9.90;;;3.33;;
54428;SDS011;40337;52.978;6.310;2022-11-09T08:46:18;10.48;;;3.03;;
54428;SDS011;40337;52.978;6.310;2022-11-09T08:48:44;11.63;;;2.80;;
54428;SDS011;40337;52.978;6.310;2022-11-09T08:51:09;8.90;;;2.72;;
54428;SDS011;40337;52.978;6.310;2022-11-09T08:53:35;9.73;;;2.95;;
54428;SDS011;40337;52.978;6.310;2022-11-09T08:56:00;12.73;;;3.55;;
54428;SDS011;40337;52.978;6.310;2022-11-09T08:58:26;8.80;;;3.13;;
54428;SDS011;40337;52.978;6.310;2022-11-09T09:00:51;8.77;;;2.92;;
54428;SDS011;40337;52.978;6.310;2022-11-09T09:03:17;11.27;;;3.58;;
54428;SDS011;40337;52.978;6.310;2022-11-09T09:05:43;9.38;;;3.13;;
54428;SDS011;40337;52.978;6.310;2022-11-09T09:08:08;9.32;;;2.67;;
54428;SDS011;40337;52.978;6.310;2022-11-09T09:10:35;12.02;;;3.40;;
54428;SDS011;40337;52.978;6.310;2022-11-09T09:13:01;11.98;;;3.28;;
54428;SDS011;40337;52.978;6.310;2022-11-09T09:15:28;9.85;;;3.10;;
54428;SDS011;40337;52.978;6.310;2022-11-09T09:17:54;10.27;;;3.00;;
54428;SDS011;40337;52.978;6.310;2022-11-09T09:20:20;8.07;;;2.72;;
54428;SDS011;40337;52.978;6.310;2022-11-09T09:22:45;11.35;;;3.45;;
54428;SDS011;40337;52.978;6.310;2022-11-09T09:25:11;8.65;;;3.30;;
54428;SDS011;40337;52.978;6.310;2022-11-09T09:27:36;10.70;;;3.30;;
54428;SDS011;40337;52.978;6.310;2022-11-09T09:30:02;14.10;;;3.30;;
54428;SDS011;40337;52.978;6.310;2022-11-09T09:32:28;10.75;;;3.42;;
54428;SDS011;40337;52.978;6.310;2022-11-09T09:34:54;10.73;;;3.58;;
54428;SDS011;40337;52.978;6.310;2022-11-09T09:37:20;11.73;;;3.22;;
54428;SDS011;40337;52.978;6.310;2022-11-09T09:39:46;9.95;;;3.20;;
54428;SDS011;40337;52.978;6.310;2022-11-09T09:42:57;9.32;;;3.55;;
54428;SDS011;40337;52.978;6.310;2022-11-09T09:45:11;10.25;;;3.40;;
54428;SDS011;40337;52.978;6.310;2022-11-09T09:47:51;11.13;;;3.60;;
54428;SDS011;40337;52.978;6.310;2022-11-09T09:50:28;9.02;;;3.55;;
54428;SDS011;40337;52.978;6.310;2022-11-09T09:53:13;12.20;;;3.90;;
54428;SDS011;40337;52.978;6.310;2022-11-09T09:55:55;11.57;;;3.78;;
54428;SDS011;40337;52.978;6.310;2022-11-09T09:58:35;13.30;;;3.92;;
54428;SDS011;40337;52.978;6.310;2022-11-09T10:03:39;11.82;;;4.20;;
54428;SDS011;40337;52.978;6.310;2022-11-09T10:22:16;11.57;;;4.10;;
54428;SDS011;40337;52.978;6.310;2022-11-09T10:24:51;9.85;;;3.80;;
54428;SDS011;40337;52.978;6.310;2022-11-09T10:27:33;14.35;;;4.55;;
54428;SDS011;40337;52.978;6.310;2022-11-09T10:30:01;11.05;;;3.78;;
54428;SDS011;40337;52.978;6.310;2022-11-09T10:32:41;9.98;;;3.95;;
54428;SDS011;40337;52.978;6.310;2022-11-09T10:37:39;11.65;;;3.97;;
54428;SDS011;40337;52.978;6.310;2022-11-09T10:42:57;9.00;;;3.60;;
54428;SDS011;40337;52.978;6.310;2022-11-09T10:45:29;12.05;;;4.03;;
54428;SDS011;40337;52.978;6.310;2022-11-09T10:47:59;10.18;;;4.00;;
54428;SDS011;40337;52.978;6.310;2022-11-09T10:50:28;9.18;;;3.28;;
54428;SDS011;40337;52.978;6.310;2022-11-09T10:53:06;10.00;;;3.40;;
54428;SDS011;40337;52.978;6.310;2022-11-09T10:56:28;11.85;;;3.40;;
54428;SDS011;40337;52.978;6.310;2022-11-09T10:58:39;9.95;;;4.00;;
54428;SDS011;40337;52.978;6.310;2022-11-09T11:03:44;9.57;;;3.42;;
54428;SDS011;40337;52.978;6.310;2022-11-09T11:08:41;9.18;;;3.40;;
54428;SDS011;40337;52.978;6.310;2022-11-09T11:11:21;10.18;;;3.40;;
54428;SDS011;40337;52.978;6.310;2022-11-09T11:13:49;9.43;;;3.60;;
54428;SDS011;40337;52.978;6.310;2022-11-09T11:16:25;9.63;;;3.63;;
54428;SDS011;40337;52.978;6.310;2022-11-09T11:18:53;9.85;;;3.78;;
54428;SDS011;40337;52.978;6.310;2022-11-09T11:21:20;8.20;;;3.35;;
54428;SDS011;40337;52.978;6.310;2022-11-09T11:29:18;9.40;;;3.78;;
54428;SDS011;40337;52.978;6.310;2022-11-09T11:31:58;11.65;;;4.38;;
54428;SDS011;40337;52.978;6.310;2022-11-09T11:34:23;9.95;;;4.20;;
54428;SDS011;40337;52.978;6.310;2022-11-09T11:42:28;10.43;;;4.00;;
54428;SDS011;40337;52.978;6.310;2022-11-09T11:45:13;11.20;;;4.10;;
54428;SDS011;40337;52.978;6.310;2022-11-09T11:56:17;11.88;;;4.40;;
54428;SDS011;40337;52.978;6.310;2022-11-09T11:59:04;9.68;;;4.40;;
54428;SDS011;40337;52.978;6.310;2022-11-09T12:01:55;11.98;;;4.07;;
54428;SDS011;40337;52.978;6.310;2022-11-09T12:04:39;12.68;;;4.30;;
54428;SDS011;40337;52.978;6.310;2022-11-09T12:07:34;12.07;;;4.35;;
54428;SDS011;40337;52.978;6.310;2022-11-09T12:10:27;10.88;;;3.92;;
54428;SDS011;40337;52.978;6.310;2022-11-09T12:13:19;13.70;;;4.85;;
54428;SDS011;40337;52.978;6.310;2022-11-09T12:24:35;12.20;;;4.07;;
54428;SDS011;40337;52.978;6.310;2022-11-09T12:27:23;10.48;;;3.70;;
54428;SDS011;40337;52.978;6.310;2022-11-09T12:30:18;11.68;;;3.75;;
54428;SDS011;40337;52.978;6.310;2022-11-09T12:35:28;9.77;;;3.63;;
54428;SDS011;40337;52.978;6.310;2022-11-09T12:38:14;10.13;;;3.25;;
54428;SDS011;40337;52.978;6.310;2022-11-09T12:40:50;10.57;;;3.20;;
54428;SDS011;40337;52.978;6.310;2022-11-09T12:43:20;9.37;;;3.13;;
54428;SDS011;40337;52.978;6.310;2022-11-09T12:45:58;7.68;;;2.75;;
54428;SDS011;40337;52.978;6.310;2022-11-09T12:48:29;6.82;;;2.70;;
54428;SDS011;40337;52.978;6.310;2022-11-09T12:50:59;9.13;;;3.10;;
54428;SDS011;40337;52.978;6.310;2022-11-09T12:53:28;7.03;;;2.58;;
54428;SDS011;40337;52.978;6.310;2022-11-09T12:56:14;7.20;;;2.50;;
54428;SDS011;40337;52.978;6.310;2022-11-09T12:58:43;7.95;;;2.83;;
54428;SDS011;40337;52.978;6.310;2022-11-09T13:01:10;8.45;;;2.80;;
54428;SDS011;40337;52.978;6.310;2022-11-09T13:03:39;9.32;;;2.83;;
54428;SDS011;40337;52.978;6.310;2022-11-09T13:06:18;6.72;;;2.33;;
54428;SDS011;40337;52.978;6.310;2022-11-09T13:09:07;8.25;;;2.58;;
54428;SDS011;40337;52.978;6.310;2022-11-09T13:11:47;7.85;;;2.78;;
54428;SDS011;40337;52.978;6.310;2022-11-09T13:16:53;7.57;;;2.65;;
54428;SDS011;40337;52.978;6.310;2022-11-09T13:20:02;7.80;;;2.08;;
54428;SDS011;40337;52.978;6.310;2022-11-09T13:29:57;5.78;;;2.03;;
54428;SDS011;40337;52.978;6.310;2022-11-09T13:32:27;6.22;;;2.10;;
54428;SDS011;40337;52.978;6.310;2022-11-09T13:34:58;5.15;;;2.15;;
54428;SDS011;40337;52.978;6.310;2022-11-09T13:50:53;6.15;;;1.70;;
54428;SDS011;40337;52.978;6.310;2022-11-09T13:53:28;6.28;;;1.40;;
54428;SDS011;40337;52.978;6.310;2022-11-09T13:56:44;7.90;;;1.75;;
54428;SDS011;40337;52.978;6.310;2022-11-09T14:01:51;5.03;;;1.60;;
54428;SDS011;40337;52.978;6.310;2022-11-09T14:04:21;4.30;;;1.20;;
54428;SDS011;40337;52.978;6.310;2022-11-09T14:06:47;4.60;;;1.40;;
54428;SDS011;40337;52.978;6.310;2022-11-09T14:09:14;5.82;;;1.42;;
54428;SDS011;40337;52.978;6.310;2022-11-09T14:11:53;4.78;;;1.55;;
54428;SDS011;40337;52.978;6.310;2022-11-09T14:14:46;6.85;;;1.67;;
54428;SDS011;40337;52.978;6.310;2022-11-09T14:17:21;4.47;;;1.60;;
54428;SDS011;40337;52.978;6.310;2022-11-09T14:20:03;5.57;;;1.85;;
54428;SDS011;40337;52.978;6.310;2022-11-09T14:22:38;5.43;;;1.80;;
54428;SDS011;40337;52.978;6.310;2022-11-09T14:25:12;5.55;;;1.95;;
54428;SDS011;40337;52.978;6.310;2022-11-09T14:27:49;4.72;;;1.85;;
54428;SDS011;40337;52.978;6.310;2022-11-09T14:30:25;8.07;;;2.28;;
54428;SDS011;40337;52.978;6.310;2022-11-09T14:32:52;5.40;;;2.22;;
54428;SDS011;40337;52.978;6.310;2022-11-09T14:35:20;5.50;;;2.17;;
54428;SDS011;40337;52.978;6.310;2022-11-09T14:37:57;6.25;;;2.60;;
54428;SDS011;40337;52.978;6.310;2022-11-09T14:40:29;8.88;;;2.80;;
54428;SDS011;40337;52.978;6.310;2022-11-09T14:43:01;5.00;;;2.25;;
54428;SDS011;40337;52.978;6.310;2022-11-09T14:45:50;5.15;;;2.40;;
54428;SDS011;40337;52.978;6.310;2022-11-09T14:48:18;7.40;;;2.53;;
54428;SDS011;40337;52.978;6.310;2022-11-09T14:50:45;8.27;;;2.47;;
54428;SDS011;40337;52.978;6.310;2022-11-09T14:53:18;6.32;;;2.70;;
54428;SDS011;40337;52.978;6.310;2022-11-09T14:55:50;8.75;;;2.97;;
54428;SDS011;40337;52.978;6.310;2022-11-09T14:58:17;7.70;;;2.97;;
54428;SDS011;40337;52.978;6.310;2022-11-09T15:00:45;9.05;;;3.10;;
54428;SDS011;40337;52.978;6.310;2022-11-09T15:03:31;6.47;;;2.88;;
54428;SDS011;40337;52.978;6.310;2022-11-09T15:06:06;6.93;;;2.72;;
54428;SDS011;40337;52.978;6.310;2022-11-09T15:08:35;6.13;;;2.70;;
54428;SDS011;40337;52.978;6.310;2022-11-09T15:11:04;7.35;;;2.97;;
54428;SDS011;40337;52.978;6.310;2022-11-09T15:13:36;7.43;;;2.90;;
54428;SDS011;40337;52.978;6.310;2022-11-09T15:16:03;6.43;;;2.60;;
54428;SDS011;40337;52.978;6.310;2022-11-09T15:18:31;8.52;;;2.63;;
54428;SDS011;40337;52.978;6.310;2022-11-09T15:21:14;7.50;;;2.55;;
54428;SDS011;40337;52.978;6.310;2022-11-09T15:23:41;7.57;;;2.78;;
54428;SDS011;40337;52.978;6.310;2022-11-09T15:28:58;6.85;;;2.03;;
54428;SDS011;40337;52.978;6.310;2022-11-09T15:31:24;7.38;;;2.40;;
54428;SDS011;40337;52.978;6.310;2022-11-09T15:33:53;5.30;;;2.00;;
54428;SDS011;40337;52.978;6.310;2022-11-09T15:36:25;7.57;;;2.42;;
54428;SDS011;40337;52.978;6.310;2022-11-09T15:39:04;8.13;;;2.30;;
54428;SDS011;40337;52.978;6.310;2022-11-09T15:41:36;6.65;;;2.22;;
54428;SDS011;40337;52.978;6.310;2022-11-09T15:44:02;7.55;;;2.50;;
54428;SDS011;40337;52.978;6.310;2022-11-09T15:46:31;11.23;;;2.90;;
54428;SDS011;40337;52.978;6.310;2022-11-09T15:51:39;10.57;;;3.35;;
54428;SDS011;40337;52.978;6.310;2022-11-09T15:54:05;7.47;;;2.90;;
54428;SDS011;40337;52.978;6.310;2022-11-09T15:56:30;10.43;;;3.20;;
54428;SDS011;40337;52.978;6.310;2022-11-09T15:58:56;7.25;;;2.75;;
54428;SDS011;40337;52.978;6.310;2022-11-09T16:01:21;9.40;;;3.22;;
54428;SDS011;40337;52.978;6.310;2022-11-09T16:03:47;8.13;;;3.05;;
54428;SDS011;40337;52.978;6.310;2022-11-09T16:06:14;9.15;;;2.75;;
54428;SDS011;40337;52.978;6.310;2022-11-09T16:08:45;9.35;;;2.60;;
54428;SDS011;40337;52.978;6.310;2022-11-09T16:11:12;7.47;;;2.85;;
54428;SDS011;40337;52.978;6.310;2022-11-09T16:13:38;8.45;;;2.85;;
54428;SDS011;40337;52.978;6.310;2022-11-09T16:16:04;7.45;;;2.50;;
54428;SDS011;40337;52.978;6.310;2022-11-09T16:18:31;10.02;;;2.88;;
54428;SDS011;40337;52.978;6.310;2022-11-09T16:20:57;7.90;;;2.15;;
54428;SDS011;40337;52.978;6.310;2022-11-09T16:23:23;7.47;;;2.20;;
54428;SDS011;40337;52.978;6.310;2022-11-09T16:25:49;6.38;;;2.22;;
54428;SDS011;40337;52.978;6.310;2022-11-09T16:28:15;9.55;;;2.70;;
54428;SDS011;40337;52.978;6.310;2022-11-09T16:30:42;9.48;;;2.30;;
54428;SDS011;40337;52.978;6.310;2022-11-09T16:33:08;6.90;;;2.15;;
54428;SDS011;40337;52.978;6.310;2022-11-09T16:35:33;6.43;;;2.13;;
54428;SDS011;40337;52.978;6.310;2022-11-09T16:37:59;7.43;;;2.28;;